createdAt,value
2019-02-24T00:02:17.634Z,49.00
2019-02-24T00:04:48.061Z,49.50
2019-02-24T00:07:17.639Z,49.56
2019-02-24T00:09:47.187Z,49.62
2019-02-24T00:12:19.305Z,50.02
2019-02-24T00:14:51.196Z,49.80
2019-02-24T00:17:23.067Z,49.92
2019-02-24T00:19:52.505Z,50.10
2019-02-24T00:22:22.042Z,50.26
2019-02-24T00:24:51.812Z,50.42
2019-02-24T00:27:21.211Z,50.61
2019-02-24T00:29:50.620Z,50.61
2019-02-24T00:32:20.277Z,50.68
2019-02-24T00:34:49.839Z,50.70
2019-02-24T00:37:19.405Z,50.70
2019-02-24T00:39:48.893Z,50.88
2019-02-24T00:42:18.757Z,51.03
2019-02-24T00:44:48.278Z,51.38
2019-02-24T00:47:18.105Z,51.44
2019-02-24T00:49:48.782Z,51.35
2019-02-24T00:52:18.272Z,51.19
2019-02-24T00:54:47.908Z,51.33
2019-02-24T00:57:17.570Z,51.49
2019-02-24T00:59:48.733Z,51.44
2019-02-24T01:02:18.443Z,51.05
2019-02-24T01:04:47.992Z,51.53
2019-02-24T01:07:17.390Z,51.25
2019-02-24T01:09:47.117Z,51.45
2019-02-24T01:12:16.850Z,51.84
2019-02-24T01:14:46.384Z,51.77
2019-02-24T01:17:15.949Z,51.57
2019-02-24T01:19:46.845Z,51.85
2019-02-24T01:22:17.431Z,51.93
2019-02-24T01:24:49.660Z,51.97
2019-02-24T01:27:19.103Z,51.95
2019-02-24T01:29:48.877Z,52.12
2019-02-24T01:32:18.803Z,52.46
2019-02-24T01:34:48.313Z,52.73
2019-02-24T01:37:19.151Z,52.80
2019-02-24T01:39:48.864Z,52.88
2019-02-24T01:42:20.592Z,53.18
2019-02-24T01:44:50.352Z,53.02
2019-02-24T01:47:24.429Z,52.99
2019-02-24T01:49:55.299Z,53.10
2019-02-24T01:52:26.524Z,52.95
2019-02-24T01:54:57.209Z,52.92
2019-02-24T01:57:26.619Z,53.22
2019-02-24T01:59:58.953Z,52.87
2019-02-24T02:02:31.087Z,52.90
2019-02-24T02:05:01.818Z,53.33
2019-02-24T02:07:32.323Z,53.38
2019-02-24T02:10:02.008Z,53.32
2019-02-24T02:12:31.452Z,53.28
2019-02-24T02:15:03.074Z,53.68
2019-02-24T02:17:33.039Z,53.55
2019-02-24T02:20:06.066Z,53.64
2019-02-24T02:22:37.325Z,53.66
2019-02-24T02:25:07.683Z,53.67
2019-02-24T02:27:38.170Z,53.90
2019-02-24T02:30:08.963Z,54.03
2019-02-24T02:32:38.685Z,54.17
2019-02-24T02:35:09.571Z,53.88
2019-02-24T02:37:40.151Z,54.39
2019-02-24T02:40:10.019Z,54.17
2019-02-24T02:42:39.400Z,54.11
2019-02-24T02:45:09.298Z,54.11
2019-02-24T02:47:40.042Z,53.93
2019-02-24T02:50:09.451Z,53.80
2019-02-24T02:52:38.954Z,53.57
2019-02-24T02:55:08.730Z,53.62
2019-02-24T02:57:38.124Z,53.61
2019-02-24T03:00:13.799Z,53.74
2019-02-24T03:02:43.572Z,53.96
2019-02-24T03:05:13.118Z,53.59
2019-02-24T03:07:49.584Z,54.19
2019-02-24T03:10:19.182Z,54.52
2019-02-24T03:12:48.608Z,54.30
2019-02-24T03:15:18.063Z,54.21
2019-02-24T03:17:47.806Z,54.24
2019-02-24T03:20:17.248Z,54.16
2019-02-24T03:22:46.680Z,54.47
2019-02-24T03:25:16.245Z,54.39
2019-02-24T03:27:45.656Z,54.82
2019-02-24T03:30:15.079Z,55.42
2019-02-24T03:32:44.597Z,55.50
2019-02-24T03:35:13.997Z,55.55
2019-02-24T03:37:43.499Z,55.65
2019-02-24T03:40:14.695Z,55.68
2019-02-24T03:42:44.125Z,55.87
2019-02-24T03:45:14.679Z,56.05
2019-02-24T03:47:44.296Z,56.23
2019-02-24T03:50:14.048Z,56.02
2019-02-24T03:52:43.518Z,55.98
2019-02-24T03:55:13.026Z,56.36
2019-02-24T03:57:42.533Z,56.35
2019-02-24T04:00:12.033Z,55.72
2019-02-24T04:02:41.560Z,55.94
2019-02-24T04:05:11.453Z,56.27
2019-02-24T04:07:44.393Z,56.36
2019-02-24T04:10:13.988Z,56.37
2019-02-24T04:12:43.490Z,56.42
2019-02-24T04:15:12.953Z,56.65
2019-02-24T04:17:42.769Z,56.68
2019-02-24T04:20:13.318Z,56.56
2019-02-24T04:22:42.724Z,56.78
2019-02-24T04:25:13.293Z,56.81
2019-02-24T04:27:42.776Z,56.61
2019-02-24T04:30:12.179Z,57.07
2019-02-24T04:32:41.765Z,57.02
2019-02-24T04:35:11.392Z,57.14
2019-02-24T04:37:41.412Z,57.15
2019-02-24T04:40:11.482Z,57.31
2019-02-24T04:42:43.906Z,57.12
2019-02-24T04:45:13.700Z,57.08
2019-02-24T04:47:43.148Z,57.33
2019-02-24T04:50:12.624Z,57.51
2019-02-24T04:52:43.363Z,57.73
2019-02-24T04:55:13.374Z,57.97
2019-02-24T04:57:45.437Z,57.98
2019-02-24T05:00:14.969Z,58.37
2019-02-24T05:02:46.241Z,58.07
2019-02-24T05:05:15.666Z,57.96
2019-02-24T05:07:45.094Z,58.10
2019-02-24T05:10:14.951Z,58.04
2019-02-24T05:12:44.359Z,57.94
2019-02-24T05:15:13.817Z,58.09
2019-02-24T05:17:43.317Z,57.91
2019-02-24T05:20:12.809Z,58.45
2019-02-24T05:22:42.157Z,58.47
2019-02-24T05:25:11.627Z,58.76
2019-02-24T05:27:41.598Z,58.71
2019-02-24T05:30:11.561Z,58.71
2019-02-24T05:32:41.844Z,58.55
2019-02-24T05:35:11.512Z,58.66
2019-02-24T05:37:41.481Z,58.67
2019-02-24T05:40:13.156Z,58.52
2019-02-24T05:42:42.707Z,59.00
2019-02-24T05:45:13.175Z,58.53
2019-02-24T05:47:42.988Z,58.76
2019-02-24T05:50:12.752Z,58.93
2019-02-24T05:52:42.138Z,59.06
2019-02-24T05:55:11.824Z,59.42
2019-02-24T05:57:41.740Z,59.68
2019-02-24T06:00:11.634Z,59.46
2019-02-24T06:02:41.693Z,59.72
2019-02-24T06:05:11.591Z,59.60
2019-02-24T06:07:41.746Z,59.35
2019-02-24T06:10:11.921Z,59.66
2019-02-24T06:12:41.632Z,59.55
2019-02-24T06:15:11.577Z,59.74
2019-02-24T06:17:41.716Z,59.89
2019-02-24T06:20:11.650Z,59.88
2019-02-24T06:22:41.532Z,59.71
2019-02-24T06:25:11.782Z,59.86
2019-02-24T06:27:42.593Z,59.75
2019-02-24T06:30:11.983Z,59.88
2019-02-24T06:32:41.935Z,59.86
2019-02-24T06:35:13.454Z,59.88
2019-02-24T06:37:45.358Z,59.99
2019-02-24T06:40:15.970Z,60.07
2019-02-24T06:42:46.508Z,60.28
2019-02-24T06:45:15.948Z,60.34
2019-02-24T06:47:45.854Z,59.78
2019-02-24T06:50:15.248Z,59.44
2019-02-24T06:52:44.770Z,59.34
2019-02-24T06:55:14.377Z,59.04
2019-02-24T06:57:43.845Z,59.04
2019-02-24T07:00:14.381Z,59.27
2019-02-24T07:02:44.245Z,59.60
2019-02-24T07:05:13.760Z,59.81
2019-02-24T07:07:44.271Z,59.83
2019-02-24T07:10:16.935Z,60.06
2019-02-24T07:12:46.340Z,59.51
2019-02-24T07:15:15.799Z,59.64
2019-02-24T07:17:47.209Z,59.67
2019-02-24T07:20:16.628Z,59.28
2019-02-24T07:22:47.942Z,58.85
2019-02-24T07:25:17.706Z,58.85
2019-02-24T07:27:47.116Z,58.49
2019-02-24T07:30:23.433Z,58.19
2019-02-24T07:32:50.323Z,58.54
2019-02-24T07:35:20.759Z,58.74
2019-02-24T07:37:51.647Z,58.49
2019-02-24T07:40:21.465Z,58.22
2019-02-24T07:42:52.709Z,58.01
2019-02-24T07:45:23.578Z,57.89
2019-02-24T07:47:54.382Z,58.05
2019-02-24T07:50:23.827Z,58.03
2019-02-24T07:52:53.272Z,58.09
2019-02-24T07:55:24.943Z,57.92
2019-02-24T07:57:56.835Z,57.54
2019-02-24T08:00:32.360Z,57.20
2019-02-24T08:02:57.689Z,57.18
2019-02-24T08:05:27.069Z,57.37
2019-02-24T08:07:58.663Z,57.45
2019-02-24T08:10:28.567Z,56.90
2019-02-24T08:12:57.975Z,57.14
2019-02-24T08:15:27.710Z,56.82
2019-02-24T08:17:57.285Z,56.24
2019-02-24T08:20:28.201Z,56.45
2019-02-24T08:22:59.549Z,56.61
2019-02-24T08:25:29.358Z,57.01
2019-02-24T08:27:58.754Z,56.40
2019-02-24T08:30:28.179Z,55.76
2019-02-24T08:32:59.691Z,55.45
2019-02-24T08:35:32.143Z,55.31
2019-02-24T08:38:02.610Z,54.88
2019-02-24T08:40:32.297Z,54.72
2019-02-24T08:43:01.761Z,54.53
2019-02-24T08:45:31.166Z,54.19
2019-02-24T08:48:00.625Z,53.71
2019-02-24T08:50:32.997Z,53.61
2019-02-24T08:53:02.463Z,53.37
2019-02-24T08:55:34.077Z,52.81
2019-02-24T08:58:03.486Z,52.93
2019-02-24T09:00:33.199Z,52.34
2019-02-24T09:03:02.684Z,52.23
2019-02-24T09:05:32.082Z,51.89
2019-02-24T09:08:01.510Z,50.82
2019-02-24T09:10:32.040Z,50.71
2019-02-24T09:13:03.250Z,50.34
2019-02-24T09:15:36.274Z,49.29
2019-02-24T09:18:09.061Z,49.77
2019-02-24T09:20:38.567Z,48.87
2019-02-24T09:23:08.027Z,48.72
2019-02-24T09:25:37.498Z,48.66
2019-02-24T09:28:06.980Z,48.41
2019-02-24T09:30:36.399Z,47.50
2019-02-24T09:33:06.006Z,47.48
2019-02-24T09:35:35.465Z,46.95
2019-02-24T09:38:05.008Z,46.89
2019-02-24T09:40:34.781Z,46.30
2019-02-24T09:43:04.181Z,45.96
2019-02-24T09:45:33.798Z,45.78
2019-02-24T09:48:03.361Z,45.42
2019-02-24T09:50:32.844Z,45.41
2019-02-24T09:53:02.289Z,44.67
2019-02-24T09:55:32.098Z,44.79
2019-02-24T09:58:03.321Z,44.01
2019-02-24T10:00:32.723Z,44.08
2019-02-24T10:03:04.201Z,43.97
2019-02-24T10:05:34.614Z,43.16
2019-02-24T10:08:05.485Z,43.15
2019-02-24T10:10:34.967Z,43.22
2019-02-24T10:13:05.754Z,43.09
2019-02-24T10:15:35.185Z,42.18
2019-02-24T10:18:04.742Z,42.87
2019-02-24T10:20:34.157Z,42.94
2019-02-24T10:23:03.558Z,42.71
2019-02-24T10:25:33.155Z,42.16
2019-02-24T10:28:02.637Z,42.24
2019-02-24T10:30:33.148Z,42.02
2019-02-24T10:33:05.851Z,42.07
2019-02-24T10:35:35.258Z,42.09
2019-02-24T10:38:04.665Z,41.46
2019-02-24T10:40:34.250Z,41.54
2019-02-24T10:43:03.645Z,40.85
2019-02-24T10:45:34.621Z,40.80
2019-02-24T10:48:13.495Z,41.58
2019-02-24T10:50:36.483Z,40.60
2019-02-24T10:53:07.810Z,40.90
2019-02-24T10:55:37.568Z,40.21
2019-02-24T10:58:08.786Z,40.51
2019-02-24T11:00:38.257Z,40.48
2019-02-24T11:03:07.799Z,39.85
2019-02-24T11:05:38.647Z,39.55
2019-02-24T11:08:08.156Z,39.58
2019-02-24T11:10:37.600Z,38.99
2019-02-24T11:13:07.229Z,39.42
2019-02-24T11:15:36.720Z,38.95
2019-02-24T11:18:06.875Z,38.30
2019-02-24T11:20:36.295Z,38.45
2019-02-24T11:23:05.787Z,38.08
2019-02-24T11:25:38.141Z,37.16
2019-02-24T11:28:07.563Z,37.35
2019-02-24T11:30:37.025Z,36.53
2019-02-24T11:33:06.775Z,36.83
2019-02-24T11:35:36.281Z,36.19
2019-02-24T11:38:07.432Z,36.62
2019-02-24T11:40:37.155Z,36.05
2019-02-24T11:43:06.572Z,36.41
2019-02-24T11:45:35.997Z,36.57
2019-02-24T11:48:05.433Z,36.71
2019-02-24T11:50:34.909Z,36.03
2019-02-24T11:53:04.717Z,36.39
2019-02-24T11:55:34.413Z,36.43
2019-02-24T11:58:03.923Z,36.34
2019-02-24T12:00:33.314Z,35.06
2019-02-24T12:03:03.967Z,35.15
2019-02-24T12:05:35.214Z,35.30
2019-02-24T12:08:04.834Z,35.50
2019-02-24T12:10:34.633Z,35.48
2019-02-24T12:13:04.199Z,35.53
2019-02-24T12:15:33.744Z,35.51
2019-02-24T12:18:03.399Z,35.63
2019-02-24T12:20:33.868Z,35.30
2019-02-24T12:23:03.362Z,34.83
2019-02-24T12:25:35.676Z,34.31
2019-02-24T12:28:05.183Z,34.57
2019-02-24T12:30:34.587Z,34.30
2019-02-24T12:33:04.157Z,34.34
2019-02-24T12:35:33.829Z,34.58
2019-02-24T12:38:03.314Z,33.93
2019-02-24T12:40:32.861Z,33.86
2019-02-24T12:43:02.292Z,34.10
2019-02-24T12:45:34.849Z,33.23
2019-02-24T12:48:04.399Z,33.61
2019-02-24T12:50:35.343Z,34.05
2019-02-24T12:53:04.817Z,33.76
2019-02-24T12:55:35.418Z,33.50
2019-02-24T12:58:04.921Z,34.05
2019-02-24T13:00:34.324Z,33.73
2019-02-24T13:03:07.077Z,33.06
2019-02-24T13:05:36.541Z,33.97
2019-02-24T13:08:07.119Z,33.96
2019-02-24T13:10:36.706Z,34.17
2019-02-24T13:13:06.111Z,33.82
2019-02-24T13:15:37.000Z,34.04
2019-02-24T13:18:08.362Z,34.01
2019-02-24T13:20:38.794Z,33.76
2019-02-24T13:23:08.430Z,33.35
2019-02-24T13:25:41.227Z,33.20
2019-02-24T13:28:11.609Z,33.44
2019-02-24T13:30:41.009Z,33.16
2019-02-24T13:33:10.831Z,33.46
2019-02-24T13:35:41.738Z,33.48
2019-02-24T13:38:11.135Z,33.10
2019-02-24T13:40:45.151Z,32.62
2019-02-24T13:43:16.619Z,32.04
2019-02-24T13:45:45.767Z,32.41
2019-02-24T13:48:15.473Z,32.53
2019-02-24T13:50:44.970Z,32.81
2019-02-24T13:53:14.368Z,33.04
2019-02-24T13:55:43.998Z,32.72
2019-02-24T13:58:15.305Z,32.25
2019-02-24T14:00:44.705Z,31.91
2019-02-24T14:03:16.313Z,31.84
2019-02-24T14:05:45.722Z,32.36
2019-02-24T14:08:15.142Z,32.42
2019-02-24T14:10:44.731Z,32.60
2019-02-24T14:13:16.008Z,33.13
2019-02-24T14:15:45.529Z,32.78
2019-02-24T14:18:15.189Z,33.50
2019-02-24T14:20:45.676Z,33.25
2019-02-24T14:23:16.225Z,33.34
2019-02-24T14:25:45.997Z,33.26
2019-02-24T14:28:16.862Z,32.59
2019-02-24T14:30:49.614Z,32.71
2019-02-24T14:33:19.328Z,32.66
2019-02-24T14:35:48.830Z,33.07
2019-02-24T14:38:19.359Z,33.18
2019-02-24T14:40:49.072Z,32.98
2019-02-24T14:43:19.583Z,33.41
2019-02-24T14:45:49.822Z,33.34
2019-02-24T14:48:20.656Z,32.92
2019-02-24T14:50:50.160Z,32.69
2019-02-24T14:53:19.552Z,32.77
2019-02-24T14:55:49.091Z,32.39
2019-02-24T14:58:18.497Z,32.07
2019-02-24T15:00:49.146Z,32.03
2019-02-24T15:03:18.832Z,32.18
2019-02-24T15:05:48.299Z,31.93
2019-02-24T15:08:18.769Z,31.84
2019-02-24T15:10:48.399Z,31.97
2019-02-24T15:13:19.620Z,31.87
2019-02-24T15:15:49.023Z,31.94
2019-02-24T15:18:18.532Z,31.88
2019-02-24T15:20:47.906Z,32.14
2019-02-24T15:23:18.361Z,31.74
2019-02-24T15:25:47.883Z,31.90
2019-02-24T15:28:17.281Z,32.04
2019-02-24T15:30:46.675Z,32.09
2019-02-24T15:33:20.157Z,32.28
2019-02-24T15:35:50.629Z,32.68
2019-02-24T15:38:21.102Z,32.76
2019-02-24T15:40:50.687Z,32.86
2019-02-24T15:43:20.082Z,32.82
2019-02-24T15:45:49.490Z,32.39
2019-02-24T15:48:19.111Z,32.68
2019-02-24T15:50:48.513Z,32.65
2019-02-24T15:53:18.016Z,32.60
2019-02-24T15:55:49.309Z,32.62
2019-02-24T15:58:20.142Z,32.71
2019-02-24T16:00:49.503Z,32.87
2019-02-24T16:03:19.975Z,32.87
2019-02-24T16:05:50.509Z,33.09
2019-02-24T16:08:21.698Z,33.16
2019-02-24T16:10:51.432Z,33.13
2019-02-24T16:13:21.856Z,33.34
2019-02-24T16:15:51.302Z,33.48
2019-02-24T16:18:22.024Z,33.72
2019-02-24T16:20:51.429Z,33.70
2019-02-24T16:23:20.827Z,33.79
2019-02-24T16:25:50.270Z,33.88
2019-02-24T16:28:19.727Z,33.85
2019-02-24T16:30:52.086Z,33.85
2019-02-24T16:33:21.828Z,33.63
2019-02-24T16:35:51.614Z,33.89
2019-02-24T16:38:21.012Z,33.91
2019-02-24T16:40:50.647Z,33.88
2019-02-24T16:43:20.031Z,34.04
2019-02-24T16:45:49.469Z,34.33
2019-02-24T16:48:22.043Z,34.64
2019-02-24T16:50:51.469Z,34.64
2019-02-24T16:53:20.908Z,35.09
2019-02-24T16:55:50.494Z,35.29
2019-02-24T16:58:19.898Z,35.47
2019-02-24T17:00:50.389Z,35.70
2019-02-24T17:03:20.327Z,36.17
2019-02-24T17:05:51.795Z,36.41
2019-02-24T17:08:21.218Z,36.59
2019-02-24T17:10:51.129Z,36.68
2019-02-24T17:13:20.574Z,36.84
2019-02-24T17:15:51.762Z,37.11
2019-02-24T17:18:24.094Z,37.17
2019-02-24T17:20:53.536Z,37.56
2019-02-24T17:23:24.746Z,37.99
2019-02-24T17:25:54.534Z,38.11
2019-02-24T17:28:23.907Z,38.28
2019-02-24T17:30:56.417Z,38.42
2019-02-24T17:33:29.941Z,38.95
2019-02-24T17:35:57.164Z,39.34
2019-02-24T17:38:26.910Z,39.27
2019-02-24T17:40:58.000Z,39.30
2019-02-24T17:43:27.513Z,39.63
2019-02-24T17:45:56.899Z,39.62
2019-02-24T17:48:28.234Z,39.63
2019-02-24T17:50:59.426Z,40.51
2019-02-24T17:53:28.864Z,40.48
2019-02-24T17:55:58.275Z,40.66
2019-02-24T17:58:28.932Z,40.67
2019-02-24T18:01:02.978Z,40.78
2019-02-24T18:03:39.410Z,40.93
2019-02-24T18:06:05.894Z,41.18
2019-02-24T18:08:35.303Z,41.30
2019-02-24T18:11:05.012Z,41.37
2019-02-24T18:13:34.435Z,41.73
2019-02-24T18:16:05.327Z,41.80
2019-02-24T18:18:36.296Z,42.34
2019-02-24T18:21:06.643Z,42.38
2019-02-24T18:23:37.247Z,42.27
2019-02-24T18:26:06.811Z,42.27
2019-02-24T18:28:37.326Z,42.68
2019-02-24T18:31:06.838Z,43.07
2019-02-24T18:33:36.493Z,42.93
2019-02-24T18:36:06.043Z,42.96
2019-02-24T18:38:37.253Z,43.12
2019-02-24T18:41:06.962Z,43.08
2019-02-24T18:43:38.309Z,43.74
2019-02-24T18:46:07.716Z,43.74
2019-02-24T18:48:37.523Z,43.80
2019-02-24T18:51:06.946Z,43.95
2019-02-24T18:53:38.212Z,43.87
2019-02-24T18:56:07.703Z,44.10
2019-02-24T18:58:37.175Z,44.13
2019-02-24T19:01:06.603Z,44.40
2019-02-24T19:03:38.069Z,45.00
2019-02-24T19:06:07.459Z,44.82
2019-02-24T19:08:37.883Z,45.10
2019-02-24T19:11:07.353Z,44.89
2019-02-24T19:13:37.988Z,44.94
2019-02-24T19:16:10.518Z,45.24
2019-02-24T19:18:40.247Z,45.37
2019-02-24T19:21:09.658Z,45.31
2019-02-24T19:23:39.153Z,45.56
2019-02-24T19:26:08.697Z,45.95
2019-02-24T19:28:38.210Z,46.50
2019-02-24T19:31:07.631Z,46.38
2019-02-24T19:33:38.197Z,46.36
2019-02-24T19:36:07.621Z,46.83
2019-02-24T19:38:37.029Z,46.93
2019-02-24T19:41:06.850Z,46.82
2019-02-24T19:43:36.263Z,47.20
2019-02-24T19:46:05.743Z,47.32
2019-02-24T19:48:41.956Z,47.24
2019-02-24T19:51:09.092Z,47.59
2019-02-24T19:53:38.512Z,47.63
2019-02-24T19:56:08.331Z,47.65
2019-02-24T19:58:38.742Z,47.88
2019-02-24T20:01:08.161Z,48.17
2019-02-24T20:03:39.108Z,48.31
2019-02-24T20:06:10.098Z,48.40
2019-02-24T20:08:40.498Z,48.65
2019-02-24T20:11:11.654Z,48.82
2019-02-24T20:13:42.210Z,49.09
2019-02-24T20:16:11.613Z,49.49
2019-02-24T20:18:41.169Z,49.69
2019-02-24T20:21:11.863Z,49.02
2019-02-24T20:23:42.623Z,48.83
2019-02-24T20:26:13.332Z,49.19
2019-02-24T20:28:43.411Z,49.53
2019-02-24T20:31:12.976Z,49.73
2019-02-24T20:33:44.307Z,50.00
2019-02-24T20:36:14.251Z,50.28
2019-02-24T20:38:44.010Z,50.32
2019-02-24T20:41:13.718Z,50.58
2019-02-24T20:43:43.212Z,50.81
2019-02-24T20:46:14.255Z,50.80
2019-02-24T20:48:45.676Z,50.75
2019-02-24T20:51:16.594Z,51.02
2019-02-24T20:53:46.123Z,51.24
2019-02-24T20:56:15.697Z,51.38
2019-02-24T20:58:45.135Z,51.47
2019-02-24T21:01:14.560Z,51.55
2019-02-24T21:03:44.163Z,51.79
2019-02-24T21:06:14.771Z,52.14
2019-02-24T21:08:44.489Z,52.35
2019-02-24T21:11:15.786Z,52.35
2019-02-24T21:13:45.181Z,52.78
2019-02-24T21:16:17.438Z,52.78
2019-02-24T21:18:47.110Z,52.77
2019-02-24T21:21:16.495Z,52.94
2019-02-24T21:23:47.219Z,52.97
2019-02-24T21:26:16.757Z,53.20
2019-02-24T21:28:46.415Z,53.35
2019-02-24T21:31:16.884Z,53.64
2019-02-24T21:33:46.398Z,53.77
2019-02-24T21:36:15.930Z,54.02
2019-02-24T21:38:47.381Z,54.32
2019-02-24T21:41:18.243Z,54.32
2019-02-24T21:43:48.759Z,54.30
2019-02-24T21:46:18.218Z,54.29
2019-02-24T21:48:49.124Z,54.57
2019-02-24T21:51:18.512Z,54.80
2019-02-24T21:53:47.909Z,55.07
2019-02-24T21:56:17.753Z,55.09
2019-02-24T21:58:47.154Z,55.08
2019-02-24T22:01:16.540Z,55.18
2019-02-24T22:03:46.309Z,55.22
2019-02-24T22:06:16.777Z,55.54
2019-02-24T22:08:46.141Z,55.58
2019-02-24T22:11:15.735Z,55.58
2019-02-24T22:13:45.121Z,55.74
2019-02-24T22:16:14.544Z,55.76
2019-02-24T22:18:44.145Z,55.85
2019-02-24T22:21:13.569Z,56.00
2019-02-24T22:23:44.708Z,56.13
2019-02-24T22:26:15.758Z,56.38
2019-02-24T22:28:45.153Z,56.64
2019-02-24T22:31:14.545Z,56.76
2019-02-24T22:33:44.083Z,56.71
2019-02-24T22:36:13.454Z,57.00
2019-02-24T22:38:44.905Z,56.98
2019-02-24T22:41:15.217Z,57.10
2019-02-24T22:43:45.601Z,57.41
2019-02-24T22:46:15.034Z,57.44
2019-02-24T22:48:44.617Z,57.46
2019-02-24T22:51:17.525Z,57.54
2019-02-24T22:53:46.930Z,57.63
2019-02-24T22:56:16.621Z,57.63
2019-02-24T22:58:47.352Z,57.69
2019-02-24T23:01:25.598Z,57.74
2019-02-24T23:04:05.396Z,57.94
2019-02-24T23:06:35.878Z,58.15
2019-02-24T23:09:09.331Z,58.29
2019-02-24T23:11:40.088Z,58.40
2019-02-24T23:14:09.575Z,58.39
2019-02-24T23:16:39.077Z,58.45
2019-02-24T23:19:08.608Z,58.46
2019-02-24T23:21:39.135Z,58.66
2019-02-24T23:24:08.612Z,58.75
2019-02-24T23:26:38.172Z,58.75
2019-02-24T23:29:07.575Z,58.68
2019-02-24T23:31:37.002Z,59.27
2019-02-24T23:34:06.560Z,59.17
2019-02-24T23:36:37.094Z,59.27
2019-02-24T23:39:11.021Z,59.46
2019-02-24T23:41:41.652Z,59.42
2019-02-24T23:44:11.087Z,59.29
2019-02-24T23:46:40.532Z,59.74
2019-02-24T23:49:10.158Z,59.59
2019-02-24T23:51:40.568Z,59.88
2019-02-24T23:54:09.988Z,59.82
2019-02-24T23:56:39.578Z,59.88
2019-02-24T23:59:09.222Z,59.97
